Jacksonville, Maryland
Current Conditions -  °F | °C
As of 6:45 PM on Friday 28 Nov 2014 (Local Time) from KMTN Reporting Station
Scattered Clouds Scattered Clouds  
Wind Chill: -3°   Ceiling: Unl
Heat Index:   Visibility: 10mi
Dew Point: -7°   Wind: 6mph
Humidity: 60%   Direction: 270°W
Pressure: 30.31"   Gusts: NA
Location:  39.5027°N, 76.5721°W
Report Text: KMTN 282345Z 27005KT 10SM FEW070 SCT100 SCT200 00/M07 A3031
Loading
Personal Weather Stations






























Interactive Weather Map New forecast layout! Learn more

10-Day Weather Forecast

Advertisements
Track Severe Weather on mobile